sensor_id;sensor_type;location;lat;lon;timestamp;temperature;humidity
56308;DHT22;42217;50.422;7.210;2022-12-01T00:00:45;5.60;99.90
56308;DHT22;42217;50.422;7.210;2022-12-01T00:03:11;5.60;99.90
56308;DHT22;42217;50.422;7.210;2022-12-01T00:05:37;5.50;99.90
56308;DHT22;42217;50.422;7.210;2022-12-01T00:08:03;5.50;99.90
56308;DHT22;42217;50.422;7.210;2022-12-01T00:10:31;5.50;99.90
56308;DHT22;42217;50.422;7.210;2022-12-01T00:12:59;5.50;99.90
56308;DHT22;42217;50.422;7.210;2022-12-01T00:15:26;5.50;99.90
56308;DHT22;42217;50.422;7.210;2022-12-01T00:17:52;5.50;99.90
56308;DHT22;42217;50.422;7.210;2022-12-01T00:20:18;5.40;99.90
56308;DHT22;42217;50.422;7.210;2022-12-01T00:22:45;5.40;99.90
56308;DHT22;42217;50.422;7.210;2022-12-01T00:25:12;5.50;99.90
56308;DHT22;42217;50.422;7.210;2022-12-01T00:27:38;5.50;99.90
56308;DHT22;42217;50.422;7.210;2022-12-01T00:30:07;5.50;99.90
56308;DHT22;42217;50.422;7.210;2022-12-01T00:32:33;5.40;99.90
56308;DHT22;42217;50.422;7.210;2022-12-01T00:34:59;5.40;99.90
56308;DHT22;42217;50.422;7.210;2022-12-01T00:37:25;5.40;99.90
56308;DHT22;42217;50.422;7.210;2022-12-01T00:39:51;5.40;99.90
56308;DHT22;42217;50.422;7.210;2022-12-01T00:42:16;5.40;99.90
56308;DHT22;42217;50.422;7.210;2022-12-01T00:44:45;5.40;99.90
56308;DHT22;42217;50.422;7.210;2022-12-01T00:47:11;5.40;99.90
56308;DHT22;42217;50.422;7.210;2022-12-01T00:49:37;5.40;99.90
56308;DHT22;42217;50.422;7.210;2022-12-01T00:52:03;5.30;99.90
56308;DHT22;42217;50.422;7.210;2022-12-01T00:54:28;5.30;99.90
56308;DHT22;42217;50.422;7.210;2022-12-01T00:56:57;5.30;99.90
56308;DHT22;42217;50.422;7.210;2022-12-01T00:59:23;5.20;99.90
56308;DHT22;42217;50.422;7.210;2022-12-01T01:01:49;5.30;99.90
56308;DHT22;42217;50.422;7.210;2022-12-01T01:04:14;5.30;99.90
56308;DHT22;42217;50.422;7.210;2022-12-01T01:06:40;5.30;99.90
56308;DHT22;42217;50.422;7.210;2022-12-01T01:09:08;5.40;99.90
56308;DHT22;42217;50.422;7.210;2022-12-01T01:11:34;5.30;99.90
56308;DHT22;42217;50.422;7.210;2022-12-01T01:14:00;5.40;99.90
56308;DHT22;42217;50.422;7.210;2022-12-01T01:16:25;5.40;99.90
56308;DHT22;42217;50.422;7.210;2022-12-01T01:18:51;5.40;99.90
56308;DHT22;42217;50.422;7.210;2022-12-01T01:21:19;5.30;99.90
56308;DHT22;42217;50.422;7.210;2022-12-01T01:23:48;5.30;99.90
56308;DHT22;42217;50.422;7.210;2022-12-01T01:26:20;5.30;99.90
56308;DHT22;42217;50.422;7.210;2022-12-01T01:28:46;5.30;99.90
56308;DHT22;42217;50.422;7.210;2022-12-01T01:31:15;5.30;99.90
56308;DHT22;42217;50.422;7.210;2022-12-01T01:33:42;5.30;99.90
56308;DHT22;42217;50.422;7.210;2022-12-01T01:36:08;5.30;99.90
56308;DHT22;42217;50.422;7.210;2022-12-01T01:38:35;5.30;99.90
56308;DHT22;42217;50.422;7.210;2022-12-01T01:41:01;5.20;99.90
56308;DHT22;42217;50.422;7.210;2022-12-01T01:48:49;5.20;99.90
56308;DHT22;42217;50.422;7.210;2022-12-01T01:51:17;5.20;99.90
56308;DHT22;42217;50.422;7.210;2022-12-01T01:53:44;5.10;99.90
56308;DHT22;42217;50.422;7.210;2022-12-01T01:56:11;5.10;99.90
56308;DHT22;42217;50.422;7.210;2022-12-01T01:58:37;5.20;99.90
56308;DHT22;42217;50.422;7.210;2022-12-01T02:01:04;5.10;99.90
56308;DHT22;42217;50.422;7.210;2022-12-01T02:03:31;5.20;99.90
56308;DHT22;42217;50.422;7.210;2022-12-01T02:05:57;5.10;99.90
56308;DHT22;42217;50.422;7.210;2022-12-01T02:08:24;5.10;99.90
56308;DHT22;42217;50.422;7.210;2022-12-01T02:16:10;5.10;99.90
56308;DHT22;42217;50.422;7.210;2022-12-01T02:18:47;5.10;99.90
56308;DHT22;42217;50.422;7.210;2022-12-01T02:27:08;5.10;99.90
56308;DHT22;42217;50.422;7.210;2022-12-01T02:32:30;5.10;99.90
56308;DHT22;42217;50.422;7.210;2022-12-01T02:37:48;5.10;99.90
56308;DHT22;42217;50.422;7.210;2022-12-01T02:40:31;5.10;99.90
56308;DHT22;42217;50.422;7.210;2022-12-01T02:46:17;5.10;99.90
56308;DHT22;42217;50.422;7.210;2022-12-01T02:48:48;5.10;99.90
56308;DHT22;42217;50.422;7.210;2022-12-01T02:51:25;5.10;99.90
56308;DHT22;42217;50.422;7.210;2022-12-01T02:53:54;5.10;99.90
56308;DHT22;42217;50.422;7.210;2022-12-01T02:56:22;5.10;99.90
56308;DHT22;42217;50.422;7.210;2022-12-01T02:58:48;5.10;99.90
56308;DHT22;42217;50.422;7.210;2022-12-01T03:03:59;5.10;99.90
56308;DHT22;42217;50.422;7.210;2022-12-01T03:07:04;5.20;99.90
56308;DHT22;42217;50.422;7.210;2022-12-01T03:23:13;5.10;99.90
56308;DHT22;42217;50.422;7.210;2022-12-01T03:25:45;5.10;99.90
56308;DHT22;42217;50.422;7.210;2022-12-01T03:28:16;5.10;99.90
56308;DHT22;42217;50.422;7.210;2022-12-01T03:30:42;5.10;99.90
56308;DHT22;42217;50.422;7.210;2022-12-01T03:33:14;5.10;99.90
56308;DHT22;42217;50.422;7.210;2022-12-01T03:35:51;5.10;99.90
56308;DHT22;42217;50.422;7.210;2022-12-01T03:38:24;5.10;99.90
56308;DHT22;42217;50.422;7.210;2022-12-01T03:40:56;5.10;99.90
56308;DHT22;42217;50.422;7.210;2022-12-01T03:43:26;5.10;99.90
56308;DHT22;42217;50.422;7.210;2022-12-01T03:48:26;5.10;99.90
56308;DHT22;42217;50.422;7.210;2022-12-01T03:51:16;5.10;99.90
56308;DHT22;42217;50.422;7.210;2022-12-01T03:56:13;5.00;99.90
56308;DHT22;42217;50.422;7.210;2022-12-01T03:58:43;5.00;99.90
56308;DHT22;42217;50.422;7.210;2022-12-01T04:01:11;5.00;99.90
56308;DHT22;42217;50.422;7.210;2022-12-01T04:03:37;5.10;99.90
56308;DHT22;42217;50.422;7.210;2022-12-01T04:06:03;5.00;99.90
56308;DHT22;42217;50.422;7.210;2022-12-01T04:08:28;5.00;99.90
56308;DHT22;42217;50.422;7.210;2022-12-01T04:10:55;5.10;99.90
56308;DHT22;42217;50.422;7.210;2022-12-01T04:13:21;5.00;99.90
56308;DHT22;42217;50.422;7.210;2022-12-01T04:15:52;5.00;99.90
56308;DHT22;42217;50.422;7.210;2022-12-01T04:18:18;5.00;99.90
56308;DHT22;42217;50.422;7.210;2022-12-01T04:20:48;5.10;99.90
56308;DHT22;42217;50.422;7.210;2022-12-01T04:23:14;5.00;99.90
56308;DHT22;42217;50.422;7.210;2022-12-01T04:26:03;5.10;99.90
56308;DHT22;42217;50.422;7.210;2022-12-01T04:28:29;5.00;99.90
56308;DHT22;42217;50.422;7.210;2022-12-01T04:30:55;5.00;99.90
56308;DHT22;42217;50.422;7.210;2022-12-01T04:33:21;5.00;99.90
56308;DHT22;42217;50.422;7.210;2022-12-01T04:35:56;5.00;99.90
56308;DHT22;42217;50.422;7.210;2022-12-01T04:38:22;5.00;99.90
56308;DHT22;42217;50.422;7.210;2022-12-01T04:40:47;5.10;99.90
56308;DHT22;42217;50.422;7.210;2022-12-01T04:43:13;5.10;99.90
56308;DHT22;42217;50.422;7.210;2022-12-01T04:45:38;5.00;99.90
56308;DHT22;42217;50.422;7.210;2022-12-01T04:48:04;5.00;99.90
56308;DHT22;42217;50.422;7.210;2022-12-01T04:50:30;5.00;99.90
56308;DHT22;42217;50.422;7.210;2022-12-01T04:52:56;5.00;99.90
56308;DHT22;42217;50.422;7.210;2022-12-01T04:55:21;5.10;99.90
56308;DHT22;42217;50.422;7.210;2022-12-01T04:57:47;5.10;99.90
56308;DHT22;42217;50.422;7.210;2022-12-01T05:00:13;5.00;99.90
56308;DHT22;42217;50.422;7.210;2022-12-01T05:02:40;5.00;99.90
56308;DHT22;42217;50.422;7.210;2022-12-01T05:05:11;5.00;99.90
56308;DHT22;42217;50.422;7.210;2022-12-01T05:07:38;5.00;99.90
56308;DHT22;42217;50.422;7.210;2022-12-01T05:10:05;5.00;99.90
56308;DHT22;42217;50.422;7.210;2022-12-01T05:12:31;5.00;99.90
56308;DHT22;42217;50.422;7.210;2022-12-01T05:14:56;5.00;99.90
56308;DHT22;42217;50.422;7.210;2022-12-01T05:17:22;5.00;99.90
56308;DHT22;42217;50.422;7.210;2022-12-01T05:19:48;5.00;99.90
56308;DHT22;42217;50.422;7.210;2022-12-01T05:22:32;5.10;99.90
56308;DHT22;42217;50.422;7.210;2022-12-01T05:24:58;5.00;99.90
56308;DHT22;42217;50.422;7.210;2022-12-01T05:27:24;5.00;99.90
56308;DHT22;42217;50.422;7.210;2022-12-01T05:29:49;5.00;99.90
56308;DHT22;42217;50.422;7.210;2022-12-01T05:32:15;5.00;99.90
56308;DHT22;42217;50.422;7.210;2022-12-01T05:34:41;5.00;99.90
56308;DHT22;42217;50.422;7.210;2022-12-01T05:37:06;5.10;99.90
56308;DHT22;42217;50.422;7.210;2022-12-01T05:39:32;5.00;99.90
56308;DHT22;42217;50.422;7.210;2022-12-01T05:41:58;5.00;99.90
56308;DHT22;42217;50.422;7.210;2022-12-01T05:44:23;5.00;99.90
56308;DHT22;42217;50.422;7.210;2022-12-01T05:46:49;5.10;99.90
56308;DHT22;42217;50.422;7.210;2022-12-01T05:49:15;5.00;99.90
56308;DHT22;42217;50.422;7.210;2022-12-01T05:51:42;5.10;99.90
56308;DHT22;42217;50.422;7.210;2022-12-01T05:54:08;5.10;99.90
56308;DHT22;42217;50.422;7.210;2022-12-01T05:56:34;5.10;99.90
56308;DHT22;42217;50.422;7.210;2022-12-01T05:58:59;5.10;99.90
56308;DHT22;42217;50.422;7.210;2022-12-01T06:01:25;5.10;99.90
56308;DHT22;42217;50.422;7.210;2022-12-01T06:03:52;5.10;99.90
56308;DHT22;42217;50.422;7.210;2022-12-01T06:06:17;5.10;99.90
56308;DHT22;42217;50.422;7.210;2022-12-01T06:08:43;5.10;99.90
56308;DHT22;42217;50.422;7.210;2022-12-01T06:11:09;5.00;99.90
56308;DHT22;42217;50.422;7.210;2022-12-01T06:13:35;5.10;99.90
56308;DHT22;42217;50.422;7.210;2022-12-01T06:16:03;5.00;99.90
56308;DHT22;42217;50.422;7.210;2022-12-01T06:18:31;5.00;99.90
56308;DHT22;42217;50.422;7.210;2022-12-01T06:20:57;5.00;99.90
56308;DHT22;42217;50.422;7.210;2022-12-01T06:23:23;5.00;99.90
56308;DHT22;42217;50.422;7.210;2022-12-01T06:25:49;5.00;99.90
56308;DHT22;42217;50.422;7.210;2022-12-01T06:28:15;5.00;99.90
56308;DHT22;42217;50.422;7.210;2022-12-01T06:30:41;5.00;99.90
56308;DHT22;42217;50.422;7.210;2022-12-01T06:33:07;5.00;99.90
56308;DHT22;42217;50.422;7.210;2022-12-01T06:35:34;5.00;99.90
56308;DHT22;42217;50.422;7.210;2022-12-01T06:38:00;5.00;99.90
56308;DHT22;42217;50.422;7.210;2022-12-01T06:40:25;5.00;99.90
56308;DHT22;42217;50.422;7.210;2022-12-01T06:42:51;5.00;99.90
56308;DHT22;42217;50.422;7.210;2022-12-01T06:45:17;5.00;99.90
56308;DHT22;42217;50.422;7.210;2022-12-01T06:47:43;4.90;99.90
56308;DHT22;42217;50.422;7.210;2022-12-01T06:50:09;5.00;99.90
56308;DHT22;42217;50.422;7.210;2022-12-01T06:52:36;5.00;99.90
56308;DHT22;42217;50.422;7.210;2022-12-01T06:55:03;5.00;99.90
56308;DHT22;42217;50.422;7.210;2022-12-01T06:57:29;5.00;99.90
56308;DHT22;42217;50.422;7.210;2022-12-01T06:59:55;5.00;99.90
56308;DHT22;42217;50.422;7.210;2022-12-01T07:02:22;5.00;99.90
56308;DHT22;42217;50.422;7.210;2022-12-01T07:04:48;5.00;99.90
56308;DHT22;42217;50.422;7.210;2022-12-01T07:07:13;5.00;99.90
56308;DHT22;42217;50.422;7.210;2022-12-01T07:09:39;5.00;99.90
56308;DHT22;42217;50.422;7.210;2022-12-01T07:12:05;5.00;99.90
56308;DHT22;42217;50.422;7.210;2022-12-01T07:14:31;5.00;99.90
56308;DHT22;42217;50.422;7.210;2022-12-01T07:16:57;5.00;99.90
56308;DHT22;42217;50.422;7.210;2022-12-01T07:19:23;5.00;99.90
56308;DHT22;42217;50.422;7.210;2022-12-01T07:21:49;5.00;99.90
56308;DHT22;42217;50.422;7.210;2022-12-01T07:24:15;5.00;99.90
56308;DHT22;42217;50.422;7.210;2022-12-01T07:26:42;5.00;99.90
56308;DHT22;42217;50.422;7.210;2022-12-01T07:29:09;5.00;99.90
56308;DHT22;42217;50.422;7.210;2022-12-01T07:31:35;5.00;99.90
56308;DHT22;42217;50.422;7.210;2022-12-01T07:34:01;5.00;99.90
56308;DHT22;42217;50.422;7.210;2022-12-01T07:36:27;5.00;99.90
56308;DHT22;42217;50.422;7.210;2022-12-01T07:38:52;5.00;99.90
56308;DHT22;42217;50.422;7.210;2022-12-01T07:41:18;5.00;99.90
56308;DHT22;42217;50.422;7.210;2022-12-01T07:43:44;5.00;99.90
56308;DHT22;42217;50.422;7.210;2022-12-01T07:46:20;5.00;99.90
56308;DHT22;42217;50.422;7.210;2022-12-01T07:48:46;5.00;99.90
56308;DHT22;42217;50.422;7.210;2022-12-01T07:51:14;5.00;99.90
56308;DHT22;42217;50.422;7.210;2022-12-01T07:53:44;5.00;99.90
56308;DHT22;42217;50.422;7.210;2022-12-01T07:56:11;5.00;99.90
56308;DHT22;42217;50.422;7.210;2022-12-01T07:58:37;5.00;99.90
56308;DHT22;42217;50.422;7.210;2022-12-01T08:01:07;5.00;99.90
56308;DHT22;42217;50.422;7.210;2022-12-01T08:03:33;5.00;99.90
56308;DHT22;42217;50.422;7.210;2022-12-01T08:06:00;5.00;99.90
56308;DHT22;42217;50.422;7.210;2022-12-01T08:08:26;4.90;99.90
56308;DHT22;42217;50.422;7.210;2022-12-01T08:10:52;5.00;99.90
56308;DHT22;42217;50.422;7.210;2022-12-01T08:13:19;5.00;99.90
56308;DHT22;42217;50.422;7.210;2022-12-01T08:15:45;5.00;99.90
56308;DHT22;42217;50.422;7.210;2022-12-01T08:18:11;5.00;99.90
56308;DHT22;42217;50.422;7.210;2022-12-01T08:20:36;5.00;99.90
56308;DHT22;42217;50.422;7.210;2022-12-01T08:23:03;5.00;99.90
56308;DHT22;42217;50.422;7.210;2022-12-01T08:25:29;5.00;99.90
56308;DHT22;42217;50.422;7.210;2022-12-01T08:27:54;5.00;99.90
56308;DHT22;42217;50.422;7.210;2022-12-01T08:30:21;5.00;99.90
56308;DHT22;42217;50.422;7.210;2022-12-01T08:32:47;5.00;99.90
56308;DHT22;42217;50.422;7.210;2022-12-01T08:35:12;5.00;99.90
56308;DHT22;42217;50.422;7.210;2022-12-01T08:37:38;5.00;99.90
56308;DHT22;42217;50.422;7.210;2022-12-01T08:40:04;5.00;99.90
56308;DHT22;42217;50.422;7.210;2022-12-01T08:42:30;5.00;99.90
56308;DHT22;42217;50.422;7.210;2022-12-01T08:44:56;5.00;99.90
56308;DHT22;42217;50.422;7.210;2022-12-01T08:47:21;4.90;99.90
56308;DHT22;42217;50.422;7.210;2022-12-01T08:49:47;4.90;99.90
56308;DHT22;42217;50.422;7.210;2022-12-01T08:52:13;4.90;99.90
56308;DHT22;42217;50.422;7.210;2022-12-01T08:54:38;4.90;99.90
56308;DHT22;42217;50.422;7.210;2022-12-01T08:57:04;4.90;99.90
56308;DHT22;42217;50.422;7.210;2022-12-01T08:59:30;4.90;99.90
56308;DHT22;42217;50.422;7.210;2022-12-01T09:01:55;4.90;99.90
56308;DHT22;42217;50.422;7.210;2022-12-01T09:04:25;4.90;99.90
56308;DHT22;42217;50.422;7.210;2022-12-01T09:06:52;4.90;99.90
56308;DHT22;42217;50.422;7.210;2022-12-01T09:09:24;4.90;99.90
56308;DHT22;42217;50.422;7.210;2022-12-01T09:11:51;4.90;99.90
56308;DHT22;42217;50.422;7.210;2022-12-01T09:14:18;5.00;99.90
56308;DHT22;42217;50.422;7.210;2022-12-01T09:16:45;5.00;99.90
56308;DHT22;42217;50.422;7.210;2022-12-01T09:19:12;5.00;99.90
56308;DHT22;42217;50.422;7.210;2022-12-01T09:21:38;4.90;99.90
56308;DHT22;42217;50.422;7.210;2022-12-01T09:24:05;4.90;99.90
56308;DHT22;42217;50.422;7.210;2022-12-01T09:26:32;4.90;99.90
56308;DHT22;42217;50.422;7.210;2022-12-01T09:29:07;5.00;99.90
56308;DHT22;42217;50.422;7.210;2022-12-01T09:31:33;5.00;99.90
56308;DHT22;42217;50.422;7.210;2022-12-01T09:34:10;5.00;99.90
56308;DHT22;42217;50.422;7.210;2022-12-01T09:36:37;5.00;99.90
56308;DHT22;42217;50.422;7.210;2022-12-01T09:39:04;5.00;99.90
56308;DHT22;42217;50.422;7.210;2022-12-01T09:41:49;4.90;99.90
56308;DHT22;42217;50.422;7.210;2022-12-01T09:45:01;4.90;99.90
56308;DHT22;42217;50.422;7.210;2022-12-01T09:47:34;4.90;99.90
56308;DHT22;42217;50.422;7.210;2022-12-01T09:52:32;4.90;99.90
56308;DHT22;42217;50.422;7.210;2022-12-01T09:54:59;4.80;99.90
56308;DHT22;42217;50.422;7.210;2022-12-01T09:57:35;4.90;99.90
56308;DHT22;42217;50.422;7.210;2022-12-01T10:00:26;4.90;99.90
56308;DHT22;42217;50.422;7.210;2022-12-01T10:05:57;4.90;99.90
56308;DHT22;42217;50.422;7.210;2022-12-01T10:08:28;4.80;99.90
56308;DHT22;42217;50.422;7.210;2022-12-01T10:11:00;4.90;99.90
56308;DHT22;42217;50.422;7.210;2022-12-01T10:13:35;4.80;99.90
56308;DHT22;42217;50.422;7.210;2022-12-01T10:16:11;4.90;99.90
56308;DHT22;42217;50.422;7.210;2022-12-01T10:19:03;4.90;99.90
56308;DHT22;42217;50.422;7.210;2022-12-01T10:24:27;4.90;99.90
56308;DHT22;42217;50.422;7.210;2022-12-01T10:32:22;4.80;99.90
56308;DHT22;42217;50.422;7.210;2022-12-01T10:34:49;4.90;99.90
56308;DHT22;42217;50.422;7.210;2022-12-01T10:37:19;4.90;99.90
56308;DHT22;42217;50.422;7.210;2022-12-01T10:39:47;4.90;99.90
56308;DHT22;42217;50.422;7.210;2022-12-01T10:44:43;4.90;99.90
56308;DHT22;42217;50.422;7.210;2022-12-01T10:47:21;4.90;99.90
56308;DHT22;42217;50.422;7.210;2022-12-01T10:49:47;4.90;99.90
56308;DHT22;42217;50.422;7.210;2022-12-01T10:52:36;4.90;99.90
56308;DHT22;42217;50.422;7.210;2022-12-01T10:55:05;4.80;99.90
56308;DHT22;42217;50.422;7.210;2022-12-01T10:57:48;4.90;99.90
56308;DHT22;42217;50.422;7.210;2022-12-01T11:00:26;4.90;99.90
56308;DHT22;42217;50.422;7.210;2022-12-01T11:02:53;5.00;99.90
56308;DHT22;42217;50.422;7.210;2022-12-01T11:05:28;5.00;99.90
56308;DHT22;42217;50.422;7.210;2022-12-01T11:07:57;5.00;99.90
56308;DHT22;42217;50.422;7.210;2022-12-01T11:10:28;5.00;99.90
56308;DHT22;42217;50.422;7.210;2022-12-01T11:16:10;5.00;99.90
56308;DHT22;42217;50.422;7.210;2022-12-01T11:21:50;5.00;99.90
56308;DHT22;42217;50.422;7.210;2022-12-01T11:24:41;5.00;99.90
56308;DHT22;42217;50.422;7.210;2022-12-01T11:27:20;5.00;99.90
56308;DHT22;42217;50.422;7.210;2022-12-01T11:29:51;5.00;99.90
56308;DHT22;42217;50.422;7.210;2022-12-01T11:32:25;5.00;99.90
56308;DHT22;42217;50.422;7.210;2022-12-01T11:34:56;5.00;99.90
56308;DHT22;42217;50.422;7.210;2022-12-01T11:37:26;5.10;99.90
56308;DHT22;42217;50.422;7.210;2022-12-01T11:39:53;5.10;99.90
56308;DHT22;42217;50.422;7.210;2022-12-01T11:42:28;5.10;99.90
56308;DHT22;42217;50.422;7.210;2022-12-01T11:50:36;5.30;99.90
56308;DHT22;42217;50.422;7.210;2022-12-01T11:53:08;5.30;99.90
56308;DHT22;42217;50.422;7.210;2022-12-01T11:55:49;5.40;99.90
56308;DHT22;42217;50.422;7.210;2022-12-01T11:58:14;5.30;99.90
56308;DHT22;42217;50.422;7.210;2022-12-01T12:00:51;5.20;99.90
56308;DHT22;42217;50.422;7.210;2022-12-01T12:05:56;5.20;99.90
56308;DHT22;42217;50.422;7.210;2022-12-01T12:12:04;5.20;99.90
56308;DHT22;42217;50.422;7.210;2022-12-01T12:23:34;5.50;99.90
56308;DHT22;42217;50.422;7.210;2022-12-01T12:26:22;5.60;99.90
56308;DHT22;42217;50.422;7.210;2022-12-01T12:41:57;5.50;99.90
56308;DHT22;42217;50.422;7.210;2022-12-01T12:47:21;5.40;99.90
56308;DHT22;42217;50.422;7.210;2022-12-01T12:52:32;5.50;99.90
56308;DHT22;42217;50.422;7.210;2022-12-01T12:57:44;5.50;99.90
56308;DHT22;42217;50.422;7.210;2022-12-01T13:00:26;5.50;99.90
56308;DHT22;42217;50.422;7.210;2022-12-01T13:08:05;5.50;99.90
56308;DHT22;42217;50.422;7.210;2022-12-01T13:13:48;5.30;99.90
56308;DHT22;42217;50.422;7.210;2022-12-01T13:16:21;5.30;99.90
56308;DHT22;42217;50.422;7.210;2022-12-01T13:18:53;5.40;99.90
56308;DHT22;42217;50.422;7.210;2022-12-01T13:21:20;5.40;99.90
56308;DHT22;42217;50.422;7.210;2022-12-01T13:23:48;5.40;99.90
56308;DHT22;42217;50.422;7.210;2022-12-01T13:26:17;5.40;99.90
56308;DHT22;42217;50.422;7.210;2022-12-01T13:28:49;5.40;99.90
56308;DHT22;42217;50.422;7.210;2022-12-01T13:31:17;5.40;99.90
56308;DHT22;42217;50.422;7.210;2022-12-01T13:34:20;5.40;99.90
56308;DHT22;42217;50.422;7.210;2022-12-01T13:36:48;5.30;99.90
56308;DHT22;42217;50.422;7.210;2022-12-01T13:39:23;5.30;99.90
56308;DHT22;42217;50.422;7.210;2022-12-01T13:42:07;5.20;99.90
56308;DHT22;42217;50.422;7.210;2022-12-01T13:44:39;5.30;99.90
56308;DHT22;42217;50.422;7.210;2022-12-01T13:49:48;5.20;99.90
56308;DHT22;42217;50.422;7.210;2022-12-01T13:57:36;5.20;99.90
56308;DHT22;42217;50.422;7.210;2022-12-01T14:02:46;5.10;99.90
56308;DHT22;42217;50.422;7.210;2022-12-01T14:08:24;5.20;99.90
56308;DHT22;42217;50.422;7.210;2022-12-01T14:11:01;5.20;99.90
56308;DHT22;42217;50.422;7.210;2022-12-01T14:13:29;5.20;99.90
56308;DHT22;42217;50.422;7.210;2022-12-01T14:16:00;5.30;99.90
56308;DHT22;42217;50.422;7.210;2022-12-01T14:18:36;5.30;99.90
56308;DHT22;42217;50.422;7.210;2022-12-01T14:21:05;5.30;99.90
56308;DHT22;42217;50.422;7.210;2022-12-01T14:23:39;5.10;99.90
56308;DHT22;42217;50.422;7.210;2022-12-01T14:26:22;5.10;99.90
56308;DHT22;42217;50.422;7.210;2022-12-01T14:31:24;5.10;99.90
56308;DHT22;42217;50.422;7.210;2022-12-01T14:34:22;5.10;99.90
56308;DHT22;42217;50.422;7.210;2022-12-01T14:36:56;5.10;99.90
56308;DHT22;42217;50.422;7.210;2022-12-01T14:39:23;5.10;99.90
56308;DHT22;42217;50.422;7.210;2022-12-01T14:44:29;5.10;99.90
56308;DHT22;42217;50.422;7.210;2022-12-01T14:49:50;5.10;99.90
56308;DHT22;42217;50.422;7.210;2022-12-01T14:52:34;5.10;99.90
56308;DHT22;42217;50.422;7.210;2022-12-01T14:55:18;5.10;99.90
56308;DHT22;42217;50.422;7.210;2022-12-01T14:57:51;4.90;99.90
56308;DHT22;42217;50.422;7.210;2022-12-01T15:00:20;5.00;99.90
56308;DHT22;42217;50.422;7.210;2022-12-01T15:03:07;5.00;99.90
56308;DHT22;42217;50.422;7.210;2022-12-01T15:05:41;5.00;99.90
56308;DHT22;42217;50.422;7.210;2022-12-01T15:08:23;4.90;99.90
56308;DHT22;42217;50.422;7.210;2022-12-01T15:11:00;4.90;99.90
56308;DHT22;42217;50.422;7.210;2022-12-01T15:13:37;4.90;99.90
56308;DHT22;42217;50.422;7.210;2022-12-01T15:16:17;4.90;99.90
56308;DHT22;42217;50.422;7.210;2022-12-01T15:18:44;4.90;99.90
56308;DHT22;42217;50.422;7.210;2022-12-01T15:21:29;4.80;99.90
56308;DHT22;42217;50.422;7.210;2022-12-01T15:26:35;4.70;99.90
56308;DHT22;42217;50.422;7.210;2022-12-01T15:29:40;4.70;99.90
56308;DHT22;42217;50.422;7.210;2022-12-01T15:32:05;4.70;99.90
56308;DHT22;42217;50.422;7.210;2022-12-01T15:34:40;4.70;99.90
56308;DHT22;42217;50.422;7.210;2022-12-01T15:37:14;4.60;99.90
56308;DHT22;42217;50.422;7.210;2022-12-01T15:39:55;4.60;99.90
56308;DHT22;42217;50.422;7.210;2022-12-01T15:42:23;4.60;99.90
56308;DHT22;42217;50.422;7.210;2022-12-01T15:45:11;4.60;99.90
56308;DHT22;42217;50.422;7.210;2022-12-01T15:47:50;4.50;99.90
56308;DHT22;42217;50.422;7.210;2022-12-01T15:50:37;4.60;99.90
56308;DHT22;42217;50.422;7.210;2022-12-01T15:53:26;4.50;99.90
56308;DHT22;42217;50.422;7.210;2022-12-01T15:55:54;4.50;99.90
56308;DHT22;42217;50.422;7.210;2022-12-01T15:58:24;4.50;99.90
56308;DHT22;42217;50.422;7.210;2022-12-01T16:01:00;4.50;99.90
56308;DHT22;42217;50.422;7.210;2022-12-01T16:03:27;4.50;99.90
56308;DHT22;42217;50.422;7.210;2022-12-01T16:05:54;4.50;99.90
56308;DHT22;42217;50.422;7.210;2022-12-01T16:08:23;4.50;99.90
56308;DHT22;42217;50.422;7.210;2022-12-01T16:11:14;4.40;99.90
56308;DHT22;42217;50.422;7.210;2022-12-01T16:16:47;4.40;99.90
56308;DHT22;42217;50.422;7.210;2022-12-01T16:24:28;4.50;99.90
56308;DHT22;42217;50.422;7.210;2022-12-01T16:27:20;4.40;99.90
56308;DHT22;42217;50.422;7.210;2022-12-01T16:29:58;4.40;99.90
56308;DHT22;42217;50.422;7.210;2022-12-01T16:32:39;4.40;99.90
56308;DHT22;42217;50.422;7.210;2022-12-01T16:37:46;4.50;99.90
56308;DHT22;42217;50.422;7.210;2022-12-01T16:40:13;4.40;99.90
56308;DHT22;42217;50.422;7.210;2022-12-01T16:42:39;4.30;99.90
56308;DHT22;42217;50.422;7.210;2022-12-01T16:45:06;4.40;99.90
56308;DHT22;42217;50.422;7.210;2022-12-01T16:47:32;4.40;99.90
56308;DHT22;42217;50.422;7.210;2022-12-01T16:49:58;4.40;99.90
56308;DHT22;42217;50.422;7.210;2022-12-01T16:52:24;4.40;99.90
56308;DHT22;42217;50.422;7.210;2022-12-01T16:54:50;4.40;99.90
56308;DHT22;42217;50.422;7.210;2022-12-01T16:57:16;4.40;99.90
56308;DHT22;42217;50.422;7.210;2022-12-01T16:59:46;4.40;99.90
56308;DHT22;42217;50.422;7.210;2022-12-01T17:02:13;4.40;99.90
56308;DHT22;42217;50.422;7.210;2022-12-01T17:04:39;4.40;99.90
56308;DHT22;42217;50.422;7.210;2022-12-01T17:07:06;4.30;99.90
56308;DHT22;42217;50.422;7.210;2022-12-01T17:09:31;4.30;99.90
56308;DHT22;42217;50.422;7.210;2022-12-01T17:11:58;4.30;99.90
56308;DHT22;42217;50.422;7.210;2022-12-01T17:14:24;4.30;99.90
56308;DHT22;42217;50.422;7.210;2022-12-01T17:16:50;4.40;99.90
56308;DHT22;42217;50.422;7.210;2022-12-01T17:19:16;4.30;99.90
56308;DHT22;42217;50.422;7.210;2022-12-01T17:21:42;4.40;99.90
56308;DHT22;42217;50.422;7.210;2022-12-01T17:24:08;4.40;99.90
56308;DHT22;42217;50.422;7.210;2022-12-01T17:26:34;4.40;99.90
56308;DHT22;42217;50.422;7.210;2022-12-01T17:29:00;4.30;99.90
56308;DHT22;42217;50.422;7.210;2022-12-01T17:31:27;4.20;99.90
56308;DHT22;42217;50.422;7.210;2022-12-01T17:33:52;4.30;99.90
56308;DHT22;42217;50.422;7.210;2022-12-01T17:36:19;4.30;99.90
56308;DHT22;42217;50.422;7.210;2022-12-01T17:38:45;4.40;99.90
56308;DHT22;42217;50.422;7.210;2022-12-01T17:41:14;4.30;99.90
56308;DHT22;42217;50.422;7.210;2022-12-01T17:43:41;4.40;99.90
56308;DHT22;42217;50.422;7.210;2022-12-01T17:46:08;4.30;99.90
56308;DHT22;42217;50.422;7.210;2022-12-01T17:48:42;4.30;99.90
56308;DHT22;42217;50.422;7.210;2022-12-01T17:51:08;4.30;99.90
56308;DHT22;42217;50.422;7.210;2022-12-01T17:53:35;4.30;99.90
56308;DHT22;42217;50.422;7.210;2022-12-01T17:56:10;4.30;99.90
56308;DHT22;42217;50.422;7.210;2022-12-01T17:58:36;4.30;99.90
56308;DHT22;42217;50.422;7.210;2022-12-01T18:01:03;4.30;99.90
56308;DHT22;42217;50.422;7.210;2022-12-01T18:03:29;4.20;99.90
56308;DHT22;42217;50.422;7.210;2022-12-01T18:05:59;4.20;99.90
56308;DHT22;42217;50.422;7.210;2022-12-01T18:08:27;4.20;99.90
56308;DHT22;42217;50.422;7.210;2022-12-01T18:10:53;4.30;99.90
56308;DHT22;42217;50.422;7.210;2022-12-01T18:13:20;4.30;99.90
56308;DHT22;42217;50.422;7.210;2022-12-01T18:15:46;4.30;99.90
56308;DHT22;42217;50.422;7.210;2022-12-01T18:18:12;4.30;99.90
56308;DHT22;42217;50.422;7.210;2022-12-01T18:20:42;4.30;99.90
56308;DHT22;42217;50.422;7.210;2022-12-01T18:23:08;4.30;99.90
56308;DHT22;42217;50.422;7.210;2022-12-01T18:25:35;4.30;99.90
56308;DHT22;42217;50.422;7.210;2022-12-01T18:28:02;4.30;99.90
56308;DHT22;42217;50.422;7.210;2022-12-01T18:30:28;4.20;99.90
56308;DHT22;42217;50.422;7.210;2022-12-01T18:32:54;4.20;99.90
56308;DHT22;42217;50.422;7.210;2022-12-01T18:35:21;4.10;99.90